Time;durP1;ratioP1;P1;durP2;ratioP2;P2;SDS_P1;SDS_P2;PMS_P1;PMS_P2;Temp;Humidity;BMP_temperature;BMP_pressure;BME280_temperature;BME280_humidity;BME280_pressure;Samples;Min_cycle;Max_cycle;Signal;HPM_P1;HPM_P2
2022/12/13 00:02:20;;;;;;;32.03;11.87;;;;;;;;;;6262185;22;20166;-91
2022/12/13 00:05:26;;;;;;;33.10;11.17;;;;;;;;;;6262593;22;20182;-91
2022/12/13 00:08:31;;;;;;;35.73;12.07;;;;;;;;;;6261743;22;20618;-91
2022/12/13 00:11:36;;;;;;;29.40;11.83;;;;;;;;;;6262965;22;20146;-91
2022/12/13 00:14:43;;;;;;;30.07;11.80;;;;;;;;;;6261269;22;20190;-91
2022/12/13 00:17:49;;;;;;;34.73;11.83;;;;;;;;;;6261176;22;20162;-91
2022/12/13 00:20:55;;;;;;;29.93;12.07;;;;;;;;;;6262278;22;20174;-91
2022/12/13 00:24:01;;;;;;;29.43;11.27;;;;;;;;;;6260612;22;20166;-90
2022/12/13 00:27:07;;;;;;;28.47;11.47;;;;;;;;;;6262832;22;20150;-91
2022/12/13 00:30:14;;;;;;;47.77;13.23;;;;;;;;;;6262355;22;20213;-91
2022/12/13 00:33:20;;;;;;;33.10;11.80;;;;;;;;;;6262119;22;20154;-90
2022/12/13 00:36:25;;;;;;;28.57;11.27;;;;;;;;;;6263785;22;20190;-92
2022/12/13 00:39:30;;;;;;;34.93;11.83;;;;;;;;;;6262101;22;20207;-92
2022/12/13 00:42:36;;;;;;;33.77;12.20;;;;;;;;;;6263424;22;20174;-92
2022/12/13 00:45:42;;;;;;;36.20;12.47;;;;;;;;;;6262667;22;20171;-91
2022/12/13 00:48:49;;;;;;;31.93;12.00;;;;;;;;;;6262764;22;20203;-92
2022/12/13 00:51:54;;;;;;;33.93;11.60;;;;;;;;;;6262907;22;20158;-89
2022/12/13 00:55:00;;;;;;;28.07;10.73;;;;;;;;;;6262810;22;20190;-91
2022/12/13 00:58:05;;;;;;;35.83;12.43;;;;;;;;;;6262884;22;20234;-89
2022/12/13 01:01:13;;;;;;;30.90;11.43;;;;;;;;;;6263092;22;20165;-91
2022/12/13 01:04:18;;;;;;;32.50;11.60;;;;;;;;;;6262667;22;20167;-91
2022/12/13 01:07:23;;;;;;;30.63;10.43;;;;;;;;;;6262817;22;20169;-91
2022/12/13 01:10:28;;;;;;;32.83;12.43;;;;;;;;;;6264738;22;20190;-91
2022/12/13 01:13:33;;;;;;;32.10;11.70;;;;;;;;;;6263061;22;20228;-89
2022/12/13 01:16:40;;;;;;;34.13;11.77;;;;;;;;;;6265060;22;20174;-94
2022/12/13 01:19:45;;;;;;;30.80;10.97;;;;;;;;;;6263775;22;20163;-90
2022/12/13 01:22:51;;;;;;;27.57;11.13;;;;;;;;;;6264373;22;20151;-90
2022/12/13 01:25:57;;;;;;;30.40;11.10;;;;;;;;;;6264745;22;20173;-90
2022/12/13 01:29:04;;;;;;;34.30;12.20;;;;;;;;;;6263700;22;20215;-92
2022/12/13 01:32:11;;;;;;;30.13;11.50;;;;;;;;;;6263482;22;20163;-91
2022/12/13 01:35:16;;;;;;;33.63;11.83;;;;;;;;;;6263053;22;20253;-92
2022/12/13 01:38:21;;;;;;;30.87;10.87;;;;;;;;;;6264022;22;20171;-91
2022/12/13 01:41:28;;;;;;;32.53;12.07;;;;;;;;;;6265003;22;20228;-91
2022/12/13 01:44:52;;;;;;;29.87;11.13;;;;;;;;;;6262842;22;20165;-89
2022/12/13 01:48:00;;;;;;;31.83;10.93;;;;;;;;;;6263850;22;20203;-92
2022/12/13 01:51:08;;;;;;;27.50;10.27;;;;;;;;;;6262994;22;20166;-91
2022/12/13 01:54:15;;;;;;;28.63;11.10;;;;;;;;;;6262515;22;20177;-91
2022/12/13 01:57:20;;;;;;;30.57;11.20;;;;;;;;;;6263741;22;20255;-91
2022/12/13 02:00:26;;;;;;;28.37;10.17;;;;;;;;;;6263640;22;20166;-92
2022/12/13 02:03:34;;;;;;;29.40;10.80;;;;;;;;;;6263832;22;20150;-91
2022/12/13 02:06:42;;;;;;;28.17;10.00;;;;;;;;;;6262651;22;20197;-91
2022/12/13 02:09:47;;;;;;;30.00;10.90;;;;;;;;;;6264089;22;20182;-90
2022/12/13 02:12:52;;;;;;;29.07;10.43;;;;;;;;;;6264460;22;20162;-94
2022/12/13 02:16:01;;;;;;;30.10;10.97;;;;;;;;;;6265797;22;20233;-92
2022/12/13 02:19:25;;;;;;;29.10;11.10;;;;;;;;;;6266168;22;20186;-91
2022/12/13 02:22:40;;;;;;;26.13;9.90;;;;;;;;;;6237130;22;20273;-91
2022/12/13 02:25:56;;;;;;;29.87;11.03;;;;;;;;;;6266186;22;20158;-90
2022/12/13 02:29:10;;;;;;;28.10;10.63;;;;;;;;;;6265802;22;20199;-91
2022/12/13 02:32:38;;;;;;;27.97;10.73;;;;;;;;;;6265148;22;20153;-90
2022/12/13 04:56:18;;;;;;;23.70;8.63;;;;;;;;;;6229704;22;20199;-91
2022/12/13 04:59:23;;;;;;;24.87;9.17;;;;;;;;;;6262788;22;20170;-91
2022/12/13 05:02:29;;;;;;;32.63;10.57;;;;;;;;;;6263486;22;20547;-89
2022/12/13 05:05:34;;;;;;;33.27;10.27;;;;;;;;;;6262393;22;20186;-93
2022/12/13 05:08:39;;;;;;;25.13;9.50;;;;;;;;;;6264676;22;20200;-92
2022/12/13 05:11:46;;;;;;;29.27;8.93;;;;;;;;;;6263654;22;20154;-90
2022/12/13 05:14:52;;;;;;;28.07;10.07;;;;;;;;;;6280313;22;20236;-91
2022/12/13 05:18:02;;;;;;;27.83;9.43;;;;;;;;;;6263733;22;20170;-93
2022/12/13 05:21:08;;;;;;;24.43;9.40;;;;;;;;;;6279988;22;20234;-92
2022/12/13 05:24:15;;;;;;;26.47;9.23;;;;;;;;;;6279201;22;20219;-90
2022/12/13 05:27:22;;;;;;;27.17;9.50;;;;;;;;;;6280089;22;20158;-90
2022/12/13 05:30:27;;;;;;;27.13;9.70;;;;;;;;;;6280439;22;20170;-92
2022/12/13 05:33:32;;;;;;;29.07;9.47;;;;;;;;;;6266094;22;20169;-90
2022/12/13 05:36:37;;;;;;;26.93;9.30;;;;;;;;;;6266335;22;20175;-91
2022/12/13 05:39:49;;;;;;;33.20;11.10;;;;;;;;;;6282143;22;20209;-90
2022/12/13 05:42:56;;;;;;;30.50;11.23;;;;;;;;;;6264618;22;20151;-90
2022/12/13 05:46:01;;;;;;;27.80;9.70;;;;;;;;;;6264304;22;20150;-90
2022/12/13 07:17:25;;;;;;;30.80;10.43;;;;;;;;;;6176673;23;20228;-91
2022/12/13 07:20:30;;;;;;;29.30;11.47;;;;;;;;;;6178010;23;20208;-92
2022/12/13 07:23:36;;;;;;;31.33;12.43;;;;;;;;;;6174203;23;20252;-92
2022/12/13 07:26:43;;;;;;;30.90;11.80;;;;;;;;;;6173109;23;20240;-89
2022/12/13 07:29:48;;;;;;;33.50;12.50;;;;;;;;;;6174324;23;20233;-92
2022/12/13 07:32:58;;;;;;;38.20;14.03;;;;;;;;;;6173788;23;20193;-94
2022/12/13 07:36:05;;;;;;;31.03;12.33;;;;;;;;;;6174299;23;20196;-92
2022/12/13 07:39:11;;;;;;;40.10;13.17;;;;;;;;;;6157735;23;20172;-92
2022/12/13 07:42:18;;;;;;;32.97;12.80;;;;;;;;;;6173279;23;20237;-89
2022/12/13 07:45:24;;;;;;;30.53;11.10;;;;;;;;;;6173645;23;20199;-91
2022/12/13 07:48:32;;;;;;;33.87;11.90;;;;;;;;;;6158358;23;20153;-90
2022/12/13 07:51:38;;;;;;;38.27;12.10;;;;;;;;;;6160738;23;20168;-93
2022/12/13 07:54:44;;;;;;;25.80;9.57;;;;;;;;;;6158880;23;20221;-90
2022/12/13 07:58:11;;;;;;;33.27;9.70;;;;;;;;;;6177947;23;20229;-90
2022/12/13 08:01:17;;;;;;;25.83;9.73;;;;;;;;;;6159556;23;20168;-90
2022/12/13 08:04:24;;;;;;;35.63;12.37;;;;;;;;;;6161542;23;20207;-90
2022/12/13 08:07:30;;;;;;;26.50;10.90;;;;;;;;;;6176173;23;20169;-91
2022/12/13 09:40:27;;;;;;;30.13;11.93;;;;;;;;;;6251879;22;20210;-92
2022/12/13 09:43:34;;;;;;;37.27;15.57;;;;;;;;;;6265744;22;20163;-91
2022/12/13 09:46:43;;;;;;;26.80;10.97;;;;;;;;;;6263620;22;20158;-91
2022/12/13 09:49:49;;;;;;;28.27;10.63;;;;;;;;;;6263982;22;20614;-92
2022/12/13 09:52:55;;;;;;;25.47;9.70;;;;;;;;;;6263538;22;20412;-91
2022/12/13 09:56:03;;;;;;;25.43;10.50;;;;;;;;;;6263162;22;20190;-93
2022/12/13 09:59:13;;;;;;;31.87;10.83;;;;;;;;;;6264417;22;20186;-91
2022/12/13 10:02:22;;;;;;;30.77;10.77;;;;;;;;;;6265288;22;20213;-92
2022/12/13 10:05:29;;;;;;;26.67;10.87;;;;;;;;;;6265709;22;20189;-90
2022/12/13 10:08:40;;;;;;;25.20;9.60;;;;;;;;;;6263021;22;20163;-90
2022/12/13 10:11:50;;;;;;;26.07;10.77;;;;;;;;;;6280459;22;20206;-90
2022/12/13 10:14:59;;;;;;;36.90;10.60;;;;;;;;;;6265019;22;20239;-92
2022/12/13 10:18:09;;;;;;;22.33;9.73;;;;;;;;;;6264539;22;20243;-92
2022/12/13 10:24:49;;;;;;;33.87;12.63;;;;;;;;;;6264557;22;20150;-90
2022/12/13 10:27:58;;;;;;;29.40;11.47;;;;;;;;;;6264699;22;20259;-92
2022/12/13 10:31:03;;;;;;;25.20;9.87;;;;;;;;;;6263056;22;20219;-90
2022/12/13 10:40:59;;;;;;;27.23;10.13;;;;;;;;;;6268652;22;20186;-91
2022/12/13 10:44:24;;;;;;;30.63;10.50;;;;;;;;;;6267817;22;20170;-91
2022/12/13 10:47:32;;;;;;;25.83;10.83;;;;;;;;;;6267859;22;20193;-91
2022/12/13 10:57:27;;;;;;;26.73;11.07;;;;;;;;;;6268453;22;20202;-92
2022/12/13 11:00:36;;;;;;;27.97;11.10;;;;;;;;;;6267549;22;20151;-91
2022/12/13 11:17:27;;;;;;;22.53;8.90;;;;;;;;;;6286003;22;20171;-91
2022/12/13 11:20:38;;;;;;;22.07;9.70;;;;;;;;;;6285507;22;20239;-90
2022/12/13 11:23:47;;;;;;;25.33;8.13;;;;;;;;;;6284038;22;20177;-89
2022/12/13 11:26:59;;;;;;;22.27;8.70;;;;;;;;;;6268276;22;20192;-90
2022/12/13 11:30:11;;;;;;;19.20;7.70;;;;;;;;;;6267166;22;20166;-89
2022/12/13 11:36:57;;;;;;;17.63;7.90;;;;;;;;;;6269109;22;20198;-91
2022/12/13 11:40:08;;;;;;;19.30;6.90;;;;;;;;;;6283248;22;20239;-90
2022/12/13 11:43:18;;;;;;;16.27;6.50;;;;;;;;;;6282091;22;20487;-91
2022/12/13 11:46:31;;;;;;;16.60;6.80;;;;;;;;;;6263330;22;20190;-89
2022/12/13 11:49:39;;;;;;;16.33;6.10;;;;;;;;;;6281363;22;20213;-91
2022/12/13 11:52:47;;;;;;;21.93;7.50;;;;;;;;;;6277200;22;20214;-89
2022/12/13 11:55:57;;;;;;;17.20;6.80;;;;;;;;;;6262096;22;20198;-93
2022/12/13 16:40:57;;;;;;;107.57;36.00;;;;;;;;;;6201844;22;20257;-92
2022/12/13 16:44:09;;;;;;;149.37;42.30;;;;;;;;;;6265828;22;20162;-91
2022/12/13 16:47:28;;;;;;;131.33;40.63;;;;;;;;;;6267536;22;20166;-91
2022/12/13 16:50:36;;;;;;;238.20;61.27;;;;;;;;;;6266919;22;20178;-89
2022/12/13 16:53:41;;;;;;;250.77;62.87;;;;;;;;;;6267794;22;20170;-90
2022/12/13 16:56:49;;;;;;;217.40;49.87;;;;;;;;;;6266199;22;20209;-90
2022/12/13 16:59:55;;;;;;;92.27;35.10;;;;;;;;;;6265200;22;20162;-92
2022/12/13 17:03:01;;;;;;;80.13;25.30;;;;;;;;;;6266020;22;20165;-88
2022/12/13 17:06:07;;;;;;;72.40;23.87;;;;;;;;;;6264662;22;20154;-91
2022/12/13 17:09:13;;;;;;;66.27;24.53;;;;;;;;;;6266916;23;20162;-88
2022/12/13 17:12:20;;;;;;;47.10;17.13;;;;;;;;;;6262964;22;20167;-89
2022/12/13 17:15:26;;;;;;;48.07;18.47;;;;;;;;;;6264886;22;20154;-91
2022/12/13 17:18:34;;;;;;;43.67;17.43;;;;;;;;;;6264912;22;20166;-91
2022/12/13 17:21:39;;;;;;;42.63;15.80;;;;;;;;;;6265414;22;20157;-91
2022/12/13 17:24:45;;;;;;;45.33;16.50;;;;;;;;;;6263935;22;20175;-90
2022/12/13 17:27:52;;;;;;;41.20;15.30;;;;;;;;;;6264014;22;20217;-91
2022/12/13 17:31:04;;;;;;;44.30;16.03;;;;;;;;;;6264469;22;20235;-92
2022/12/13 17:34:17;;;;;;;40.63;14.87;;;;;;;;;;6263660;22;20162;-92
2022/12/13 17:37:24;;;;;;;35.10;14.40;;;;;;;;;;6267481;22;20220;-90
2022/12/13 17:40:29;;;;;;;32.93;13.10;;;;;;;;;;6264544;22;20186;-92
2022/12/13 17:43:37;;;;;;;41.33;16.87;;;;;;;;;;6262804;22;20154;-90
2022/12/13 17:46:43;;;;;;;45.17;17.37;;;;;;;;;;6263425;22;20206;-90
2022/12/13 17:49:48;;;;;;;41.00;16.17;;;;;;;;;;6263145;22;20166;-90
2022/12/13 17:52:55;;;;;;;43.80;16.23;;;;;;;;;;6263046;22;20170;-89
2022/12/13 17:56:04;;;;;;;41.37;16.53;;;;;;;;;;6264257;22;20194;-90
2022/12/13 17:59:13;;;;;;;38.27;14.87;;;;;;;;;;6263661;22;20166;-88
2022/12/13 18:02:21;;;;;;;46.87;18.10;;;;;;;;;;6262531;22;20170;-88
2022/12/13 18:05:28;;;;;;;46.17;16.27;;;;;;;;;;6262283;22;20166;-90
2022/12/13 18:08:35;;;;;;;45.27;15.80;;;;;;;;;;6260991;22;20215;-90
2022/12/13 18:11:40;;;;;;;35.80;15.53;;;;;;;;;;6263032;22;20166;-90
2022/12/13 18:14:48;;;;;;;43.07;16.87;;;;;;;;;;6263285;22;20214;-90
2022/12/13 18:17:54;;;;;;;45.80;16.50;;;;;;;;;;6264017;22;20179;-92
2022/12/13 18:21:04;;;;;;;47.87;17.90;;;;;;;;;;6266870;22;20186;-90
2022/12/13 20:47:36;;;;;;;30.97;13.23;;;;;;;;;;6168942;22;1426682;-89
2022/12/13 20:50:41;;;;;;;34.53;12.93;;;;;;;;;;6203692;23;20168;-89
2022/12/13 20:53:49;;;;;;;32.80;13.73;;;;;;;;;;6206733;23;20163;-89
2022/12/13 20:56:56;;;;;;;33.43;13.90;;;;;;;;;;6204382;23;20175;-90
2022/12/13 21:00:05;;;;;;;34.57;13.17;;;;;;;;;;6205028;23;20192;-91
2022/12/13 21:03:15;;;;;;;35.03;13.10;;;;;;;;;;6205539;23;20151;-88
2022/12/13 21:06:21;;;;;;;41.00;15.17;;;;;;;;;;6205716;23;20199;-91
2022/12/13 21:09:27;;;;;;;39.23;15.40;;;;;;;;;;6204231;23;20228;-90
2022/12/13 21:12:35;;;;;;;34.97;14.57;;;;;;;;;;6204731;23;20209;-89
2022/12/13 21:15:41;;;;;;;34.67;13.43;;;;;;;;;;6204469;23;20167;-89
2022/12/13 21:19:07;;;;;;;36.57;14.47;;;;;;;;;;6203100;23;20246;-88
2022/12/13 21:22:15;;;;;;;38.87;14.43;;;;;;;;;;6204466;23;20264;-91
2022/12/13 21:25:21;;;;;;;44.07;15.37;;;;;;;;;;6204824;23;20215;-90
2022/12/13 21:28:26;;;;;;;40.87;15.70;;;;;;;;;;6203327;23;20168;-87
2022/12/13 21:31:31;;;;;;;33.17;13.60;;;;;;;;;;6203116;23;20212;-90
2022/12/13 21:34:38;;;;;;;35.27;13.87;;;;;;;;;;6205304;23;20159;-87
2022/12/13 21:37:52;;;;;;;30.77;12.40;;;;;;;;;;6202516;23;20171;-91
2022/12/13 21:40:58;;;;;;;34.50;13.57;;;;;;;;;;6205527;23;20168;-92
2022/12/13 21:44:03;;;;;;;39.33;14.10;;;;;;;;;;6209607;23;20192;-91
2022/12/13 21:47:09;;;;;;;41.83;15.17;;;;;;;;;;6205531;23;20224;-88
2022/12/13 23:50:33;;;;;;;27.67;11.77;;;;;;;;;;6222371;22;20567;-90
2022/12/13 23:53:39;;;;;;;31.10;10.57;;;;;;;;;;6220303;23;20201;-91
2022/12/13 23:56:45;;;;;;;30.77;11.67;;;;;;;;;;6219473;23;20171;-90
2022/12/13 23:59:52;;;;;;;25.60;10.57;;;;;;;;;;6220038;22;20216;-87
